Time;durP1;ratioP1;P1;durP2;ratioP2;P2;SDS_P1;SDS_P2;PMS_P1;PMS_P2;Temp;Humidity;BMP_temperature;BMP_pressure;BME280_temperature;BME280_humidity;BME280_pressure;Samples;Min_cycle;Max_cycle;Signal;HPM_P1;HPM_P2
2023/12/25 00:01:48;;;;;;;2.43;1.20;;;11.30;67.30;;;;;;5037381;28;20196;-76
2023/12/25 00:04:14;;;;;;;2.57;1.10;;;11.30;67.50;;;;;;5030564;28;20542;-77
2023/12/25 00:06:39;;;;;;;5.17;1.00;;;11.30;67.50;;;;;;5031120;28;20427;-77
2023/12/25 00:09:05;;;;;;;1.50;1.00;;;11.20;67.30;;;;;;5030543;28;20188;-77
2023/12/25 00:11:30;;;;;;;1.30;1.00;;;11.20;67.50;;;;;;5028130;28;20220;-77
2023/12/25 00:13:57;;;;;;;2.20;1.10;;;11.20;67.30;;;;;;5025942;28;20772;-76
2023/12/25 00:16:26;;;;;;;2.73;1.20;;;11.20;67.30;;;;;;5032069;28;20189;-77
2023/12/25 00:18:52;;;;;;;3.47;1.63;;;11.20;67.20;;;;;;5033971;28;20435;-77
2023/12/25 00:21:18;;;;;;;3.00;1.30;;;11.20;67.30;;;;;;5025589;28;20864;-76
2023/12/25 00:23:44;;;;;;;3.37;1.47;;;11.30;67.00;;;;;;5031458;28;20436;-77
2023/12/25 00:26:09;;;;;;;1.60;1.07;;;11.30;67.00;;;;;;5029050;28;20744;-78
2023/12/25 00:28:35;;;;;;;2.30;1.17;;;11.20;67.00;;;;;;5027354;28;20181;-76
2023/12/25 00:31:00;;;;;;;1.70;1.30;;;11.20;66.90;;;;;;5028859;28;20213;-76
2023/12/25 00:33:26;;;;;;;2.33;1.10;;;11.20;66.90;;;;;;5029397;28;20946;-77
2023/12/25 00:35:51;;;;;;;1.57;1.23;;;11.20;67.00;;;;;;5023193;28;20181;-78
2023/12/25 00:38:17;;;;;;;1.80;1.20;;;11.20;66.60;;;;;;5029953;28;20185;-77
2023/12/25 00:40:43;;;;;;;3.23;1.03;;;11.20;66.60;;;;;;5023110;28;20677;-77
2023/12/25 00:43:08;;;;;;;2.83;1.20;;;11.20;66.40;;;;;;5027278;28;20243;-76
2023/12/25 00:45:34;;;;;;;5.53;1.30;;;11.20;66.40;;;;;;5029939;28;20569;-79
2023/12/25 00:48:00;;;;;;;1.67;1.17;;;11.20;66.60;;;;;;5029478;28;20188;-79
2023/12/25 00:50:25;;;;;;;3.10;1.20;;;11.20;66.60;;;;;;5021270;28;20243;-78
2023/12/25 00:52:51;;;;;;;1.73;0.90;;;11.20;66.60;;;;;;5029924;28;20173;-75
2023/12/25 00:55:17;;;;;;;2.60;1.33;;;11.20;66.40;;;;;;5029170;28;20212;-76
2023/12/25 00:57:42;;;;;;;3.30;1.57;;;11.20;66.60;;;;;;5029375;28;20185;-77
2023/12/25 01:00:08;;;;;;;2.90;1.30;;;11.10;66.60;;;;;;5023725;28;20305;-78
2023/12/25 01:02:34;;;;;;;2.13;1.20;;;11.20;66.60;;;;;;5028456;28;20259;-77
2023/12/25 01:04:59;;;;;;;2.37;1.43;;;11.20;66.30;;;;;;5030512;28;20433;-77
2023/12/25 01:07:25;;;;;;;2.37;1.20;;;11.20;66.30;;;;;;5029812;28;20657;-76
2023/12/25 01:09:50;;;;;;;2.30;0.93;;;11.20;66.00;;;;;;5025426;28;20244;-76
2023/12/25 01:12:16;;;;;;;1.93;1.20;;;11.20;66.30;;;;;;5034084;28;20220;-76
2023/12/25 01:14:44;;;;;;;1.90;1.27;;;11.20;66.30;;;;;;5031522;28;20181;-75
2023/12/25 01:17:10;;;;;;;1.70;1.00;;;11.20;66.40;;;;;;5032165;28;20272;-76
2023/12/25 01:19:35;;;;;;;1.43;1.13;;;11.20;66.00;;;;;;5030073;28;20483;-76
2023/12/25 01:22:01;;;;;;;1.80;0.93;;;11.20;66.10;;;;;;5022120;28;20440;-75
2023/12/25 01:24:27;;;;;;;1.67;1.03;;;11.20;66.00;;;;;;5029838;28;20304;-76
2023/12/25 01:26:52;;;;;;;9.40;1.30;;;11.10;66.00;;;;;;5028872;28;20197;-76
2023/12/25 01:29:18;;;;;;;2.63;1.20;;;11.10;66.30;;;;;;5026463;28;20196;-77
2023/12/25 01:31:43;;;;;;;1.70;1.00;;;11.10;66.00;;;;;;5021910;28;20213;-76
2023/12/25 01:34:09;;;;;;;1.87;1.17;;;11.10;66.10;;;;;;5028859;28;20225;-75
2023/12/25 01:36:35;;;;;;;1.93;1.00;;;11.10;66.00;;;;;;5030500;28;20185;-75
2023/12/25 01:39:01;;;;;;;4.00;1.33;;;11.00;66.10;;;;;;5028892;28;20291;-76
2023/12/25 01:41:27;;;;;;;1.70;1.00;;;11.00;66.10;;;;;;5025714;28;20598;-76
2023/12/25 01:43:53;;;;;;;1.93;1.23;;;11.10;65.80;;;;;;5029566;28;20448;-76
2023/12/25 01:46:18;;;;;;;2.73;1.00;;;11.10;65.80;;;;;;5029460;28;20204;-76
2023/12/25 01:48:47;;;;;;;3.33;1.20;;;11.00;65.80;;;;;;5016437;28;20177;-76
2023/12/25 01:51:13;;;;;;;2.33;1.27;;;11.00;65.70;;;;;;5024675;28;20224;-77
2023/12/25 01:53:38;;;;;;;2.67;1.10;;;11.00;65.70;;;;;;5029016;28;20443;-76
2023/12/25 01:56:04;;;;;;;2.13;0.90;;;11.00;66.00;;;;;;5028041;28;20721;-75
2023/12/25 01:58:30;;;;;;;2.90;1.20;;;11.00;65.70;;;;;;5027279;28;20189;-76
2023/12/25 02:00:55;;;;;;;2.33;0.90;;;11.00;65.70;;;;;;5017577;28;20260;-77
2023/12/25 02:03:21;;;;;;;1.83;1.13;;;11.00;65.80;;;;;;5026156;28;20269;-76
2023/12/25 02:05:47;;;;;;;1.57;1.10;;;11.00;65.80;;;;;;5024987;28;20600;-76
2023/12/25 02:08:14;;;;;;;3.60;1.40;;;11.00;65.70;;;;;;5027721;28;20408;-78
2023/12/25 02:10:40;;;;;;;2.57;1.20;;;11.00;65.80;;;;;;5024489;28;20479;-77
2023/12/25 02:13:06;;;;;;;2.50;1.20;;;11.00;65.70;;;;;;5029894;28;20522;-76
2023/12/25 02:15:32;;;;;;;2.70;1.40;;;11.00;65.70;;;;;;5020545;28;20421;-75
2023/12/25 02:17:58;;;;;;;2.37;1.10;;;11.00;65.80;;;;;;5028088;28;20185;-76
2023/12/25 02:20:24;;;;;;;1.20;1.00;;;11.00;65.60;;;;;;5022005;28;20488;-76
2023/12/25 02:22:50;;;;;;;1.37;0.90;;;11.00;65.70;;;;;;5024156;28;20256;-76
2023/12/25 02:25:31;;;;;;;3.00;0.90;;;11.00;65.70;;;;;;5024579;28;20178;-76
2023/12/25 02:27:57;;;;;;;1.60;1.00;;;11.00;65.70;;;;;;5026471;28;20474;-80
2023/12/25 02:30:23;;;;;;;2.33;1.20;;;10.90;65.70;;;;;;5024394;28;20468;-76
2023/12/25 02:32:48;;;;;;;2.10;1.20;;;10.90;65.80;;;;;;5028338;28;20181;-75
2023/12/25 02:35:14;;;;;;;2.93;1.33;;;10.90;66.00;;;;;;5016696;28;20413;-76
2023/12/25 02:37:40;;;;;;;1.47;1.00;;;10.90;65.80;;;;;;5028459;28;20649;-75
2023/12/25 02:40:06;;;;;;;2.73;1.03;;;11.00;65.80;;;;;;5026205;28;20303;-76
2023/12/25 02:42:32;;;;;;;1.67;1.00;;;11.00;65.60;;;;;;5028695;28;20681;-76
2023/12/25 02:44:57;;;;;;;1.90;1.10;;;10.90;65.70;;;;;;5018421;28;20425;-77
2023/12/25 02:47:23;;;;;;;2.67;1.20;;;10.90;65.60;;;;;;5026926;28;20622;-75
2023/12/25 02:49:49;;;;;;;0.80;0.70;;;11.00;65.40;;;;;;5025212;28;20213;-77
2023/12/25 02:52:14;;;;;;;1.77;1.10;;;11.00;65.40;;;;;;5023348;28;20203;-76
2023/12/25 02:54:40;;;;;;;1.80;0.80;;;11.00;65.10;;;;;;5020560;28;20177;-74
2023/12/25 02:57:05;;;;;;;1.20;0.83;;;11.00;65.30;;;;;;5026486;28;20182;-75
2023/12/25 02:59:31;;;;;;;1.63;1.20;;;11.00;65.10;;;;;;5025398;28;20209;-77
2023/12/25 03:01:56;;;;;;;3.33;1.17;;;11.00;65.10;;;;;;5025375;28;20581;-76
2023/12/25 03:04:22;;;;;;;2.03;1.50;;;11.00;65.30;;;;;;5029034;28;20231;-76
2023/12/25 03:06:47;;;;;;;1.50;0.83;;;11.00;65.40;;;;;;5028934;28;20185;-76
2023/12/25 03:09:13;;;;;;;1.40;0.90;;;11.00;65.30;;;;;;5029378;28;20188;-77
2023/12/25 03:11:39;;;;;;;2.30;1.07;;;10.90;65.40;;;;;;5027061;28;20280;-75
2023/12/25 03:14:04;;;;;;;1.97;1.00;;;11.00;65.30;;;;;;5030181;28;20331;-76
2023/12/25 03:16:30;;;;;;;3.47;1.20;;;10.90;65.30;;;;;;5029879;28;20186;-76
2023/12/25 03:18:55;;;;;;;1.67;1.30;;;10.90;65.10;;;;;;5022924;28;20185;-76
2023/12/25 03:21:21;;;;;;;2.03;1.10;;;10.90;65.40;;;;;;5022662;28;20315;-76
2023/12/25 03:23:47;;;;;;;2.17;1.00;;;10.90;65.30;;;;;;5029581;28;20556;-76
2023/12/25 03:26:13;;;;;;;1.93;1.17;;;10.90;65.30;;;;;;5027381;28;20178;-76
2023/12/25 03:28:39;;;;;;;3.50;1.17;;;10.90;65.00;;;;;;5037783;28;20187;-76
2023/12/25 03:31:04;;;;;;;2.63;1.10;;;10.90;65.30;;;;;;5026972;28;20224;-76
2023/12/25 03:33:30;;;;;;;4.20;1.23;;;10.90;65.10;;;;;;5033977;28;20428;-77
2023/12/25 03:35:56;;;;;;;2.90;1.20;;;10.90;65.10;;;;;;5040387;28;20204;-76
2023/12/25 03:38:22;;;;;;;2.30;0.90;;;10.90;65.10;;;;;;5038593;28;20181;-78
2023/12/25 03:40:47;;;;;;;3.43;1.10;;;10.90;64.80;;;;;;5027871;28;20796;-76
2023/12/25 03:43:13;;;;;;;6.00;1.50;;;11.00;64.80;;;;;;5030632;28;20472;-76
2023/12/25 03:45:39;;;;;;;1.77;0.80;;;10.90;65.00;;;;;;5036734;28;20617;-76
2023/12/25 03:48:04;;;;;;;2.23;1.20;;;11.00;64.70;;;;;;5032864;28;20182;-76
2023/12/25 03:50:30;;;;;;;4.90;1.30;;;10.90;64.70;;;;;;5028442;28;20213;-77
2023/12/25 03:52:56;;;;;;;1.33;0.90;;;10.90;65.00;;;;;;5028161;28;20235;-77
2023/12/25 03:55:21;;;;;;;2.53;1.07;;;10.90;65.00;;;;;;5029933;28;20268;-76
2023/12/25 03:57:47;;;;;;;2.50;1.00;;;10.90;64.80;;;;;;5033212;28;20654;-77
2023/12/25 04:00:13;;;;;;;2.07;1.00;;;10.80;64.80;;;;;;5026931;28;20236;-76
2023/12/25 04:02:38;;;;;;;1.37;0.80;;;10.80;65.00;;;;;;5032719;28;20985;-77
2023/12/25 04:05:06;;;;;;;1.50;0.90;;;10.90;65.00;;;;;;5027391;28;20446;-77
2023/12/25 04:07:31;;;;;;;2.63;1.20;;;10.90;64.80;;;;;;5032974;28;20182;-76
2023/12/25 04:09:58;;;;;;;1.70;0.97;;;10.90;64.80;;;;;;5029363;28;20482;-77
2023/12/25 04:12:23;;;;;;;1.63;1.20;;;10.90;64.70;;;;;;5030071;28;20189;-76
2023/12/25 04:14:49;;;;;;;2.10;1.17;;;10.90;64.80;;;;;;5031928;28;20549;-76
2023/12/25 04:17:14;;;;;;;1.50;1.00;;;10.90;64.80;;;;;;5032278;28;20181;-78
2023/12/25 04:19:40;;;;;;;1.67;1.10;;;10.90;64.80;;;;;;5029957;28;20596;-76
2023/12/25 04:22:06;;;;;;;1.60;1.00;;;10.90;64.80;;;;;;5028296;28;20181;-77
2023/12/25 04:24:31;;;;;;;2.30;0.90;;;10.80;64.80;;;;;;5032704;28;20432;-77
2023/12/25 04:26:57;;;;;;;2.80;1.10;;;10.90;64.70;;;;;;5025089;28;20540;-76
2023/12/25 04:29:23;;;;;;;2.47;1.10;;;10.80;64.50;;;;;;5028905;28;20194;-78
2023/12/25 04:31:49;;;;;;;6.57;1.23;;;10.80;64.80;;;;;;5025286;28;20185;-77
2023/12/25 04:34:14;;;;;;;1.30;0.80;;;10.80;64.70;;;;;;5031729;28;20307;-77
2023/12/25 04:36:40;;;;;;;2.10;1.10;;;10.90;64.70;;;;;;5030493;28;20924;-77
2023/12/25 04:39:06;;;;;;;1.30;1.00;;;10.80;64.80;;;;;;5028297;28;20209;-77
2023/12/25 04:41:31;;;;;;;1.07;0.80;;;10.70;64.80;;;;;;5023017;28;20217;-77
2023/12/25 04:43:57;;;;;;;1.30;0.90;;;10.80;64.80;;;;;;5032244;28;20252;-77
2023/12/25 04:46:22;;;;;;;1.57;1.00;;;10.90;64.50;;;;;;5022463;28;20232;-75
2023/12/25 04:48:48;;;;;;;2.20;1.00;;;10.80;64.50;;;;;;5032694;28;20174;-77
2023/12/25 04:51:14;;;;;;;1.70;1.10;;;10.80;64.40;;;;;;5027199;28;20301;-76
2023/12/25 04:53:39;;;;;;;1.13;0.83;;;10.80;64.50;;;;;;5028897;28;20272;-76
2023/12/25 04:56:10;;;;;;;2.33;1.20;;;10.80;64.70;;;;;;5034053;28;20185;-77
2023/12/25 04:58:35;;;;;;;2.00;1.23;;;10.90;64.20;;;;;;5036668;28;20185;-77
2023/12/25 05:01:02;;;;;;;1.93;0.90;;;10.90;64.20;;;;;;5034605;28;21014;-75
2023/12/25 05:03:28;;;;;;;2.40;1.20;;;10.80;64.40;;;;;;5032463;28;20189;-76
2023/12/25 05:05:54;;;;;;;2.00;1.07;;;10.80;64.50;;;;;;5030323;28;20435;-77
2023/12/25 05:08:19;;;;;;;1.30;1.10;;;10.90;64.40;;;;;;5030019;28;20565;-75
2023/12/25 05:10:45;;;;;;;1.00;0.90;;;10.80;64.40;;;;;;5028447;28;20197;-75
2023/12/25 05:13:10;;;;;;;1.53;1.10;;;10.80;64.40;;;;;;5029113;28;20200;-75
2023/12/25 05:15:36;;;;;;;1.53;1.13;;;10.80;64.50;;;;;;5035979;28;20177;-76
2023/12/25 05:18:02;;;;;;;1.93;1.30;;;10.70;64.50;;;;;;5027892;28;20181;-75
2023/12/25 05:20:28;;;;;;;2.33;1.20;;;10.80;64.40;;;;;;5024303;28;20226;-76
2023/12/25 05:22:53;;;;;;;1.40;0.90;;;10.70;64.50;;;;;;5031039;28;20459;-76
2023/12/25 05:25:19;;;;;;;3.10;1.00;;;10.80;64.50;;;;;;5027250;28;20209;-76
2023/12/25 05:27:44;;;;;;;2.70;0.90;;;10.80;64.70;;;;;;5031920;28;20177;-76
2023/12/25 05:30:11;;;;;;;2.40;1.30;;;10.70;64.50;;;;;;5028800;28;20208;-76
2023/12/25 05:32:37;;;;;;;1.30;1.03;;;10.70;64.40;;;;;;5031573;28;20177;-77
2023/12/25 05:35:04;;;;;;;2.83;1.00;;;10.70;64.40;;;;;;5031080;28;20889;-78
2023/12/25 05:37:30;;;;;;;3.03;1.07;;;10.70;64.40;;;;;;5031322;28;20424;-75
2023/12/25 05:39:56;;;;;;;1.30;1.00;;;10.70;64.50;;;;;;5027856;28;20483;-76
2023/12/25 05:42:21;;;;;;;1.20;1.00;;;10.60;64.50;;;;;;5030882;28;20420;-76
2023/12/25 05:44:47;;;;;;;1.40;0.83;;;10.60;64.80;;;;;;5027347;28;20184;-76
2023/12/25 05:47:13;;;;;;;1.93;1.10;;;10.60;65.10;;;;;;5024990;28;20235;-78
2023/12/25 05:49:39;;;;;;;1.27;0.87;;;10.60;65.10;;;;;;5028209;28;20189;-78
2023/12/25 05:52:04;;;;;;;1.43;1.20;;;10.60;65.40;;;;;;5023956;28;20427;-77
2023/12/25 05:54:30;;;;;;;1.93;1.00;;;10.70;64.80;;;;;;5034331;28;20424;-74
2023/12/25 05:56:56;;;;;;;1.10;1.00;;;10.60;64.80;;;;;;5036990;28;20999;-77
2023/12/25 05:59:21;;;;;;;6.13;1.27;;;10.70;65.00;;;;;;5040011;28;20224;-78
2023/12/25 06:01:47;;;;;;;1.77;1.10;;;10.70;64.80;;;;;;5036614;28;20276;-77
2023/12/25 06:04:12;;;;;;;2.80;1.00;;;10.70;65.10;;;;;;5042388;28;20204;-75
2023/12/25 06:06:38;;;;;;;3.80;1.37;;;10.60;65.30;;;;;;5040055;28;20192;-76
2023/12/25 06:09:03;;;;;;;3.40;1.20;;;10.60;65.30;;;;;;5041685;28;20254;-76
2023/12/25 06:11:30;;;;;;;1.40;1.00;;;10.60;65.10;;;;;;5038749;28;20213;-74
2023/12/25 06:13:55;;;;;;;1.87;1.03;;;10.60;65.00;;;;;;5041922;28;20217;-75
2023/12/25 06:16:21;;;;;;;3.40;1.00;;;10.60;65.00;;;;;;5046212;28;20498;-75
2023/12/25 06:18:46;;;;;;;11.30;0.90;;;10.60;65.30;;;;;;5044509;28;20213;-75
2023/12/25 06:21:15;;;;;;;1.47;0.90;;;10.70;64.80;;;;;;5025602;28;20665;-75
2023/12/25 06:23:40;;;;;;;2.00;0.87;;;10.70;64.80;;;;;;5026856;28;20273;-76
2023/12/25 06:26:06;;;;;;;2.67;0.70;;;10.70;64.80;;;;;;5028301;28;20506;-76
2023/12/25 06:28:32;;;;;;;1.87;0.90;;;10.70;64.70;;;;;;5030689;28;20196;-77
2023/12/25 06:30:57;;;;;;;1.77;1.00;;;10.60;64.70;;;;;;5027550;28;20205;-77
2023/12/25 06:33:23;;;;;;;1.13;0.80;;;10.60;64.70;;;;;;5030849;28;20192;-78
2023/12/25 06:35:49;;;;;;;2.70;1.10;;;10.70;64.70;;;;;;5022479;28;20192;-77
2023/12/25 06:38:14;;;;;;;1.50;1.10;;;10.70;64.80;;;;;;5029125;28;20553;-77
2023/12/25 06:40:40;;;;;;;2.60;1.20;;;10.60;65.00;;;;;;5020353;28;20299;-77
2023/12/25 06:43:07;;;;;;;1.97;1.40;;;10.70;65.00;;;;;;5029950;28;20196;-77
2023/12/25 06:45:34;;;;;;;1.10;0.90;;;10.70;64.70;;;;;;5030804;28;20212;-77
2023/12/25 06:48:00;;;;;;;1.43;0.97;;;10.80;64.50;;;;;;5042447;28;20460;-77
2023/12/25 06:50:25;;;;;;;2.47;1.10;;;10.80;63.90;;;;;;5026713;28;20515;-77
2023/12/25 06:52:51;;;;;;;1.90;1.10;;;10.80;64.10;;;;;;5029855;28;20420;-75
2023/12/25 06:55:16;;;;;;;3.60;1.23;;;10.70;64.10;;;;;;5029581;28;20200;-76
2023/12/25 06:57:42;;;;;;;1.67;1.33;;;10.80;63.90;;;;;;5024537;28;20696;-76
2023/12/25 07:00:08;;;;;;;2.73;1.20;;;10.60;64.10;;;;;;5024118;28;20704;-77
2023/12/25 07:02:34;;;;;;;1.40;0.90;;;10.60;64.10;;;;;;5033234;28;20284;-77
2023/12/25 07:05:00;;;;;;;1.40;0.90;;;10.60;64.10;;;;;;5033845;28;20984;-76
2023/12/25 07:07:25;;;;;;;1.30;0.90;;;10.60;64.20;;;;;;5030944;28;20240;-77
2023/12/25 07:09:51;;;;;;;2.63;1.10;;;10.50;64.20;;;;;;5026317;28;20710;-76
2023/12/25 07:12:18;;;;;;;1.53;1.07;;;10.40;64.20;;;;;;5027536;28;20205;-75
2023/12/25 07:14:45;;;;;;;2.57;1.30;;;10.40;64.40;;;;;;5034678;28;20424;-78
2023/12/25 07:17:10;;;;;;;3.00;1.30;;;10.40;64.10;;;;;;5035853;28;20494;-75
2023/12/25 07:19:36;;;;;;;1.80;1.20;;;10.40;64.40;;;;;;5032861;28;20554;-77
2023/12/25 07:22:02;;;;;;;2.73;1.27;;;10.50;64.20;;;;;;5025534;28;20425;-78
2023/12/25 07:24:28;;;;;;;1.30;1.00;;;10.40;64.20;;;;;;5031065;28;20193;-79
2023/12/25 07:26:53;;;;;;;2.33;1.00;;;10.40;64.20;;;;;;5036038;28;20191;-77
2023/12/25 07:29:20;;;;;;;1.87;1.20;;;10.40;64.20;;;;;;5034796;28;20216;-76
2023/12/25 07:31:45;;;;;;;1.60;1.10;;;10.40;64.40;;;;;;5034516;28;20185;-77
2023/12/25 07:34:11;;;;;;;2.33;1.40;;;10.40;64.40;;;;;;5034865;28;20851;-78
2023/12/25 07:36:37;;;;;;;2.80;1.10;;;10.40;64.20;;;;;;5025960;28;20204;-79
2023/12/25 07:39:05;;;;;;;1.20;0.80;;;10.40;64.70;;;;;;5034157;28;20256;-77
2023/12/25 07:41:31;;;;;;;1.60;1.00;;;10.40;64.50;;;;;;5028676;28;20693;-77
2023/12/25 07:44:00;;;;;;;2.33;1.20;;;10.30;64.50;;;;;;5036762;28;20507;-78
2023/12/25 07:46:27;;;;;;;1.93;1.10;;;10.30;64.80;;;;;;5032574;28;20577;-76
2023/12/25 07:48:53;;;;;;;1.80;1.40;;;10.20;65.00;;;;;;5033435;28;20873;-77
2023/12/25 07:51:19;;;;;;;2.33;1.27;;;10.30;65.10;;;;;;5029747;28;20459;-77
2023/12/25 07:53:44;;;;;;;1.73;1.00;;;10.40;64.80;;;;;;5034534;28;20424;-77
2023/12/25 07:56:10;;;;;;;2.47;1.10;;;10.60;64.40;;;;;;5033106;28;20556;-77
2023/12/25 07:58:36;;;;;;;3.17;1.10;;;10.50;63.90;;;;;;5034262;28;20185;-77
2023/12/25 08:01:02;;;;;;;1.83;1.00;;;10.50;64.20;;;;;;5032943;28;20244;-76
2023/12/25 08:03:27;;;;;;;1.70;1.20;;;10.50;64.20;;;;;;5035601;28;20200;-78
2023/12/25 08:05:53;;;;;;;1.63;1.10;;;10.40;64.10;;;;;;5035164;28;20480;-78
2023/12/25 08:08:19;;;;;;;3.43;1.83;;;10.40;64.40;;;;;;5031177;28;20669;-77
2023/12/25 08:10:45;;;;;;;1.90;1.47;;;10.30;64.50;;;;;;5030908;28;20205;-78
2023/12/25 08:13:10;;;;;;;1.73;1.30;;;10.30;64.50;;;;;;5033309;28;20280;-78
2023/12/25 08:15:36;;;;;;;7.13;1.43;;;10.40;64.80;;;;;;5030105;28;20428;-77
2023/12/25 08:18:01;;;;;;;1.90;1.40;;;10.40;64.40;;;;;;5033606;28;20251;-77
2023/12/25 08:20:27;;;;;;;2.80;1.43;;;10.40;64.50;;;;;;5025191;28;20245;-78
2023/12/25 08:22:53;;;;;;;2.20;1.40;;;10.40;64.50;;;;;;5039317;28;20189;-77
2023/12/25 08:25:18;;;;;;;2.10;1.13;;;10.40;64.80;;;;;;5035043;28;20181;-77
2023/12/25 08:27:44;;;;;;;2.20;1.20;;;10.40;64.70;;;;;;5033302;28;20189;-77
2023/12/25 08:30:10;;;;;;;2.60;1.30;;;10.40;65.10;;;;;;5025898;28;20698;-77
2023/12/25 08:32:36;;;;;;;2.20;1.27;;;10.50;64.80;;;;;;5032344;28;20463;-77
2023/12/25 08:35:03;;;;;;;5.00;2.97;;;10.50;65.10;;;;;;5032390;28;20448;-76
2023/12/25 08:37:29;;;;;;;1.77;1.33;;;10.50;64.80;;;;;;5032958;28;20208;-77
2023/12/25 08:39:54;;;;;;;2.60;1.40;;;10.60;64.80;;;;;;5025195;28;20483;-77
2023/12/25 08:42:20;;;;;;;3.97;1.50;;;10.60;64.80;;;;;;5031414;28;20237;-77
2023/12/25 08:44:47;;;;;;;2.67;1.50;;;10.60;64.70;;;;;;5034000;28;20177;-78
2023/12/25 08:47:14;;;;;;;2.70;1.23;;;10.60;65.30;;;;;;5030836;28;20649;-78
2023/12/25 08:49:40;;;;;;;1.60;1.10;;;10.70;64.80;;;;;;5023539;28;20942;-76
2023/12/25 08:52:06;;;;;;;1.43;1.13;;;10.70;64.80;;;;;;5041261;28;20528;-75
2023/12/25 08:54:31;;;;;;;3.70;1.40;;;10.70;65.00;;;;;;5025789;28;20424;-75
2023/12/25 08:56:59;;;;;;;1.83;1.20;;;10.60;65.10;;;;;;5032683;28;20181;-76
2023/12/25 08:59:24;;;;;;;3.23;1.50;;;10.60;65.30;;;;;;5031871;28;20217;-77
2023/12/25 09:01:51;;;;;;;3.30;1.63;;;10.60;65.40;;;;;;5028189;28;20507;-76
2023/12/25 09:04:16;;;;;;;1.57;1.10;;;10.70;65.40;;;;;;5028044;28;20741;-78
2023/12/25 09:06:42;;;;;;;3.23;1.13;;;10.70;65.70;;;;;;5032390;28;20439;-76
2023/12/25 09:09:10;;;;;;;2.67;1.23;;;10.60;66.00;;;;;;5033637;28;20186;-76
2023/12/25 09:11:36;;;;;;;1.90;1.20;;;10.60;66.00;;;;;;5028594;28;20201;-75
2023/12/25 09:14:02;;;;;;;1.50;1.20;;;10.60;66.10;;;;;;5032449;28;20517;-76
2023/12/25 09:16:28;;;;;;;4.23;2.13;;;10.60;66.40;;;;;;5028251;28;20595;-75
2023/12/25 09:18:54;;;;;;;1.90;1.10;;;10.70;66.10;;;;;;5027249;28;20619;-77
2023/12/25 09:21:20;;;;;;;3.00;1.50;;;10.70;66.10;;;;;;5028178;28;20502;-75
2023/12/25 09:23:46;;;;;;;1.43;1.10;;;10.80;66.30;;;;;;5032142;28;20189;-77
2023/12/25 09:26:19;;;;;;;3.63;1.40;;;10.80;66.10;;;;;;5028841;28;20573;-77
2023/12/25 09:28:45;;;;;;;2.40;1.30;;;10.80;66.30;;;;;;5023182;28;20420;-78
2023/12/25 09:31:14;;;;;;;2.80;1.40;;;10.90;66.10;;;;;;5033175;28;20505;-76
2023/12/25 09:33:40;;;;;;;3.50;1.33;;;10.80;66.30;;;;;;5039554;28;20936;-76
2023/12/25 09:36:07;;;;;;;1.90;1.10;;;10.90;66.60;;;;;;5025434;28;20420;-76
2023/12/25 09:38:32;;;;;;;2.47;1.63;;;10.90;66.60;;;;;;5022601;28;20519;-76
2023/12/25 09:40:58;;;;;;;3.90;1.40;;;10.90;66.60;;;;;;5025795;28;20562;-77
2023/12/25 09:43:24;;;;;;;3.33;1.30;;;11.00;66.60;;;;;;5031270;28;20658;-76
2023/12/25 09:45:50;;;;;;;6.80;1.50;;;11.00;66.90;;;;;;5032337;28;20205;-77
2023/12/25 09:48:19;;;;;;;2.90;1.30;;;11.00;66.90;;;;;;5022233;28;20425;-76
2023/12/25 09:50:45;;;;;;;3.37;1.30;;;11.00;67.00;;;;;;5028222;28;20828;-77
2023/12/25 09:53:10;;;;;;;2.70;1.37;;;11.10;67.30;;;;;;5032796;28;20420;-76
2023/12/25 09:55:36;;;;;;;2.20;1.40;;;11.10;67.00;;;;;;5023180;28;20335;-76
2023/12/25 09:58:06;;;;;;;1.67;1.23;;;11.10;67.20;;;;;;5031679;28;20239;-76
2023/12/25 10:00:32;;;;;;;2.27;1.10;;;11.10;67.30;;;;;;5025461;28;20930;-76
2023/12/25 10:02:59;;;;;;;1.43;1.00;;;11.10;67.30;;;;;;5026329;28;20423;-75
2023/12/25 10:05:26;;;;;;;3.23;1.30;;;11.10;67.50;;;;;;5030866;28;20443;-75
2023/12/25 10:07:51;;;;;;;1.80;1.30;;;11.10;67.70;;;;;;5029224;28;21063;-75
2023/12/25 10:10:17;;;;;;;2.80;1.10;;;11.10;67.70;;;;;;5027429;28;20487;-74
2023/12/25 10:12:44;;;;;;;1.73;1.17;;;11.10;67.70;;;;;;5032416;28;20200;-76
2023/12/25 10:15:13;;;;;;;5.17;1.30;;;11.20;67.90;;;;;;5030412;28;20174;-75
2023/12/25 10:17:39;;;;;;;1.73;1.20;;;11.10;68.00;;;;;;5028422;28;20817;-77
2023/12/25 10:20:07;;;;;;;1.40;1.00;;;11.10;68.20;;;;;;5027083;28;20578;-76
2023/12/25 10:22:38;;;;;;;2.17;1.00;;;11.00;68.30;;;;;;5024579;28;20240;-76
2023/12/25 10:25:13;;;;;;;1.30;0.90;;;11.00;68.60;;;;;;5033870;28;20493;-76
2023/12/25 10:27:43;;;;;;;2.87;1.07;;;11.10;68.80;;;;;;5031568;28;20923;-77
2023/12/25 10:30:30;;;;;;;1.50;1.00;;;11.10;68.80;;;;;;5033481;28;20448;-77
2023/12/25 10:33:15;;;;;;;1.67;1.10;;;11.20;68.90;;;;;;5027515;28;20420;-75
2023/12/25 10:35:41;;;;;;;1.40;1.00;;;11.20;68.80;;;;;;5033581;28;20454;-77
2023/12/25 10:38:07;;;;;;;1.50;0.90;;;11.20;68.80;;;;;;5031061;28;20428;-74
2023/12/25 10:40:36;;;;;;;2.30;1.10;;;11.20;68.90;;;;;;5024455;28;20503;-77
2023/12/25 10:43:01;;;;;;;2.33;1.20;;;11.30;68.90;;;;;;5027291;28;20844;-74
2023/12/25 10:45:28;;;;;;;1.90;1.03;;;11.50;68.90;;;;;;5034746;28;20455;-75
2023/12/25 10:48:02;;;;;;;1.23;0.90;;;11.60;68.50;;;;;;5030642;28;20181;-76
2023/12/25 10:50:34;;;;;;;2.07;1.00;;;11.70;68.50;;;;;;5023096;28;21248;-75
2023/12/25 10:53:01;;;;;;;1.40;0.93;;;11.60;68.60;;;;;;5026633;28;21080;-76
2023/12/25 10:55:36;;;;;;;1.50;1.00;;;11.60;68.80;;;;;;5028991;28;20438;-74
2023/12/25 10:58:05;;;;;;;2.47;0.90;;;11.80;68.80;;;;;;5032971;28;20423;-75
2023/12/25 11:00:33;;;;;;;2.23;0.93;;;12.00;68.30;;;;;;5022193;28;20486;-74
2023/12/25 11:03:02;;;;;;;1.33;1.00;;;12.10;68.30;;;;;;5024320;28;20534;-74
2023/12/25 11:05:28;;;;;;;2.20;0.93;;;12.20;68.00;;;;;;5028766;28;20451;-75
2023/12/25 11:07:54;;;;;;;1.90;1.13;;;12.10;68.00;;;;;;5029000;28;20486;-77
2023/12/25 11:10:20;;;;;;;1.20;0.90;;;12.10;68.20;;;;;;5019844;28;20467;-76
2023/12/25 11:12:46;;;;;;;1.53;0.90;;;12.10;68.20;;;;;;5028088;28;20424;-76
2023/12/25 11:15:12;;;;;;;1.83;1.23;;;12.10;68.60;;;;;;5030201;28;20419;-76
2023/12/25 11:17:41;;;;;;;1.30;0.90;;;12.20;68.20;;;;;;5030706;28;20420;-77
2023/12/25 11:20:10;;;;;;;0.90;0.80;;;12.30;68.20;;;;;;5027433;28;20480;-78
2023/12/25 11:22:41;;;;;;;1.60;0.90;;;12.30;68.20;;;;;;5033539;28;21257;-80
2023/12/25 11:25:20;;;;;;;1.77;1.00;;;12.20;68.30;;;;;;5037599;28;20412;-77
2023/12/25 11:27:53;;;;;;;0.93;0.70;;;12.30;68.30;;;;;;5044235;28;20503;-76
2023/12/25 11:30:22;;;;;;;1.63;0.90;;;12.20;68.50;;;;;;5029040;28;20460;-82
2023/12/25 11:33:36;;;;;;;1.60;0.90;;;12.20;68.60;;;;;;5032755;28;20754;-76
2023/12/25 11:36:11;;;;;;;1.80;1.17;;;12.20;68.50;;;;;;5021182;28;20420;-73
2023/12/25 11:38:45;;;;;;;0.90;0.80;;;12.30;68.50;;;;;;5029684;28;20424;-68
2023/12/25 11:41:18;;;;;;;1.80;0.80;;;12.30;68.30;;;;;;5027044;28;20511;-71
2023/12/25 11:43:46;;;;;;;6.20;1.07;;;12.20;68.60;;;;;;5023472;28;20445;-71
2023/12/25 11:46:19;;;;;;;1.90;1.03;;;12.20;68.90;;;;;;5030632;28;20891;-71
2023/12/25 11:48:47;;;;;;;1.00;0.70;;;12.10;68.80;;;;;;5027984;28;20443;-68
2023/12/25 11:51:26;;;;;;;1.57;1.23;;;12.20;68.80;;;;;;5025362;28;20458;-70
2023/12/25 11:53:56;;;;;;;1.77;0.90;;;12.30;68.80;;;;;;5029042;28;20423;-70
2023/12/25 11:56:21;;;;;;;1.73;0.80;;;12.30;68.80;;;;;;5030140;28;20948;-70
2023/12/25 11:58:47;;;;;;;1.80;1.00;;;12.10;68.80;;;;;;5030415;28;20491;-70
2023/12/25 12:01:16;;;;;;;1.10;0.90;;;12.10;68.90;;;;;;5018896;28;20690;-70
2023/12/25 12:03:47;;;;;;;1.13;0.70;;;12.00;69.10;;;;;;5024266;28;20474;-71
2023/12/25 12:06:17;;;;;;;0.80;0.57;;;12.00;69.20;;;;;;5020359;28;20413;-71
2023/12/25 12:08:43;;;;;;;2.90;1.03;;;12.00;69.20;;;;;;5022623;28;20426;-70
2023/12/25 12:11:10;;;;;;;1.00;0.77;;;11.80;69.40;;;;;;5026157;28;20511;-70
2023/12/25 12:13:36;;;;;;;1.40;0.80;;;11.80;69.50;;;;;;5026020;28;20434;-71
2023/12/25 12:16:03;;;;;;;6.33;1.10;;;11.70;69.80;;;;;;5026652;28;20547;-70
2023/12/25 12:18:29;;;;;;;1.60;0.90;;;11.70;69.90;;;;;;5030601;28;20432;-69
2023/12/25 12:20:55;;;;;;;2.23;0.83;;;11.70;69.80;;;;;;5027859;28;20507;-71
2023/12/25 12:23:21;;;;;;;3.47;1.67;;;11.80;69.70;;;;;;5038035;28;20428;-70
2023/12/25 12:25:47;;;;;;;1.20;0.90;;;11.70;69.80;;;;;;5033155;28;20425;-70
2023/12/25 12:28:16;;;;;;;2.70;0.87;;;11.70;70.10;;;;;;5024999;28;20189;-70
2023/12/25 12:30:42;;;;;;;1.63;1.10;;;11.60;70.10;;;;;;5029201;28;20204;-69
2023/12/25 12:33:12;;;;;;;1.83;1.00;;;11.60;70.20;;;;;;5026079;28;20441;-69
2023/12/25 12:35:39;;;;;;;1.07;0.83;;;11.70;70.40;;;;;;5028200;28;20837;-70
2023/12/25 12:38:05;;;;;;;2.10;0.80;;;11.70;70.40;;;;;;5026854;28;20428;-70
2023/12/25 12:40:32;;;;;;;1.17;0.60;;;11.60;70.40;;;;;;5024441;28;20532;-69
2023/12/25 12:42:57;;;;;;;1.30;0.80;;;11.50;70.70;;;;;;5030479;28;20925;-72
2023/12/25 12:45:23;;;;;;;1.20;0.80;;;11.60;70.80;;;;;;5031582;28;21003;-70